Airfield :
LOGIN :

Register | Disclaimer

   EN    FR    IT 

 










Legend :    VFR   Marginal VFR   IFR   Intensive IFR   Very Intensive IFR
Visi :
Ceiling :
>= 8 km
>= 3000ft
5 to 8 km
1000 to 3000 ft
1500m to 5 km
500 to 1000 ft
800 to 1500m
200 to 500 ft
< 800m
< 200 ft
Symbols :   Thunderstorms  Fog  Heavy snow  Heavy precipitations  Wind > 20 kt
SIGMETs :     Misc.  Thunderstorms  Icing  Turbulence  Mountain Waves  Volcanic Ashes







- Airport Elevation : 459 ft
- IATA code : CER
- Download approach charts


LFRC - Cherbourg / Maupertus

CURRENT METAR :
  • 181700Z AUTO 16014KT CAVOK 03/M07 Q1012 BECMG RA

EXPIRED METARs :
  • 181630Z AUTO 16015KT CAVOK 03/M07 Q1012 BECMG RA
  • 181600Z AUTO 16015KT CAVOK 04/M06 Q1013 NOSIG
  • 181530Z AUTO 16014KT CAVOK 04/M06 Q1013 NOSIG
  • 181500Z AUTO 16013KT CAVOK 05/M06 Q1013 NOSIG
  • 181430Z AUTO 16012KT CAVOK 04/M06 Q1014 NOSIG

TAF TAF LFRC
Valid from the 18 at 15:00 until the 19 at 00:00 UTC


181400Z 1815/1824 17014KT CAVOK
BECMG 1818/1821 5000 RA BKN015
TEMPO 1821/1824 2000 RA BKN005
No reported NOTAMs for that airfield.



MET'MAP, your aeronautical weather chart ! - Copyright ORBIFLY December 2007 - Disclaimer

ORBIFLY MET'MAP TEAM :

Programming & Development : Alexandra Zaïnal
Concept & Development : Baudouin d'Aumeries
Co-Development & Prog : Marc-Olivier Méhu
Technical & hardware support : Manuel Goepfert

Contact : metmap@orbifly.com




SOURCES & CREDITS :

   NOAA